createdAt,value
2023-03-26T00:01:19.214Z,5.45
2023-03-26T00:03:47.062Z,5.43
2023-03-26T00:06:16.033Z,5.82
2023-03-26T00:08:44.922Z,5.80
2023-03-26T00:11:14.309Z,6.70
2023-03-26T00:13:43.726Z,6.28
2023-03-26T00:16:13.721Z,7.03
2023-03-26T00:18:44.420Z,6.10
2023-03-26T00:21:14.885Z,6.97
2023-03-26T00:23:42.802Z,6.88
2023-03-26T00:26:10.692Z,7.60
2023-03-26T00:28:42.335Z,7.63
2023-03-26T00:31:12.271Z,7.20
2023-03-26T00:33:40.713Z,8.50
2023-03-26T00:36:10.930Z,8.50
2023-03-26T00:38:41.625Z,8.52
2023-03-26T00:41:17.781Z,8.90
2023-03-26T00:43:48.552Z,10.10
2023-03-26T00:46:15.615Z,7.53
2023-03-26T00:48:45.990Z,7.72
2023-03-26T00:51:15.565Z,8.13
2023-03-26T00:53:43.902Z,8.30
2023-03-26T00:56:10.939Z,8.25
2023-03-26T00:58:37.782Z,8.55
2023-03-26T01:01:08.329Z,8.27
2023-03-26T01:03:38.403Z,8.80
2023-03-26T01:06:11.292Z,9.33
2023-03-26T01:08:47.461Z,7.47
2023-03-26T01:11:22.553Z,9.18
2023-03-26T01:14:07.210Z,8.57
2023-03-26T01:16:42.163Z,8.50
2023-03-26T01:19:47.657Z,8.63
2023-03-26T01:22:17.916Z,8.63
2023-03-26T01:24:48.685Z,8.48
2023-03-26T01:27:54.166Z,8.38
2023-03-26T01:30:42.345Z,7.60
2023-03-26T01:33:33.914Z,7.77
2023-03-26T01:36:33.239Z,8.30
2023-03-26T01:39:09.763Z,8.32
2023-03-26T01:41:49.327Z,6.85
2023-03-26T01:44:36.499Z,7.90
2023-03-26T01:47:04.122Z,8.50
2023-03-26T01:49:31.776Z,8.77
2023-03-26T01:51:58.337Z,8.45
2023-03-26T01:54:28.248Z,8.15
2023-03-26T01:57:16.421Z,8.70
2023-03-26T02:00:11.512Z,8.20
2023-03-26T02:02:44.152Z,7.30
2023-03-26T02:05:29.816Z,7.35
2023-03-26T02:08:35.220Z,7.70
2023-03-26T02:11:05.968Z,8.65
2023-03-26T02:13:32.614Z,8.43
2023-03-26T02:16:01.466Z,7.60
2023-03-26T02:18:39.004Z,8.38
2023-03-26T02:21:10.926Z,8.70
2023-03-26T02:23:37.815Z,7.50
2023-03-26T02:26:11.394Z,8.50
2023-03-26T02:28:38.304Z,7.78
2023-03-26T02:31:05.514Z,8.30
2023-03-26T02:33:32.348Z,8.98
2023-03-26T02:36:02.397Z,10.88
2023-03-26T02:38:30.378Z,9.00
2023-03-26T02:40:56.858Z,9.77
2023-03-26T02:43:23.492Z,8.70
2023-03-26T02:45:50.238Z,8.35
2023-03-26T02:48:17.011Z,8.32
2023-03-26T02:50:43.924Z,8.67
2023-03-26T02:53:11.776Z,8.93
2023-03-26T02:55:38.328Z,11.18
2023-03-26T02:58:04.768Z,11.82
2023-03-26T03:00:31.209Z,10.98
2023-03-26T03:03:04.556Z,10.13
2023-03-26T03:05:32.929Z,11.48
2023-03-26T03:07:59.599Z,11.93
2023-03-26T03:10:27.625Z,10.57
2023-03-26T03:12:54.759Z,12.27
2023-03-26T03:15:21.617Z,10.73
2023-03-26T03:17:48.229Z,12.05
2023-03-26T03:20:15.502Z,11.40
2023-03-26T03:22:42.552Z,10.63
2023-03-26T03:25:14.272Z,11.18
2023-03-26T03:27:42.767Z,10.43
2023-03-26T03:30:11.855Z,11.23
2023-03-26T03:32:38.656Z,10.82
2023-03-26T03:35:05.867Z,11.95
2023-03-26T03:37:32.358Z,12.63
2023-03-26T03:39:58.800Z,11.97
2023-03-26T03:42:25.346Z,10.27
2023-03-26T03:44:51.773Z,12.57
2023-03-26T03:47:18.243Z,12.40
2023-03-26T03:49:44.694Z,14.00
2023-03-26T03:52:11.173Z,13.30
2023-03-26T03:54:37.743Z,12.25
2023-03-26T03:57:04.444Z,12.20
2023-03-26T03:59:30.892Z,12.90
2023-03-26T04:01:57.386Z,11.13
2023-03-26T04:04:24.722Z,12.43
2023-03-26T04:06:52.013Z,11.13
2023-03-26T04:09:19.001Z,12.55
2023-03-26T04:11:45.577Z,12.07
2023-03-26T04:14:11.999Z,10.48
2023-03-26T04:16:38.483Z,9.57
2023-03-26T04:19:05.064Z,12.05
2023-03-26T04:21:32.001Z,11.75
2023-03-26T04:23:58.491Z,10.27
2023-03-26T04:26:24.931Z,9.68
2023-03-26T04:28:59.781Z,10.77
2023-03-26T04:31:30.578Z,10.30
2023-03-26T04:34:05.552Z,10.00
2023-03-26T04:36:34.259Z,8.32
2023-03-26T04:39:03.534Z,9.07
2023-03-26T04:41:30.205Z,8.90
2023-03-26T04:43:56.816Z,9.32
2023-03-26T04:46:23.732Z,10.00
2023-03-26T04:48:51.884Z,8.68
2023-03-26T04:51:21.900Z,9.45
2023-03-26T04:53:57.855Z,8.43
2023-03-26T04:56:43.361Z,8.45
2023-03-26T04:59:18.159Z,8.88
2023-03-26T05:01:45.995Z,8.38
2023-03-26T05:04:13.608Z,9.65
2023-03-26T05:06:41.774Z,9.57
2023-03-26T05:09:10.651Z,8.52
2023-03-26T05:11:37.347Z,8.82
2023-03-26T05:14:03.824Z,9.50
2023-03-26T05:16:31.769Z,9.32
2023-03-26T05:18:58.314Z,7.87
2023-03-26T05:21:25.360Z,8.73
2023-03-26T05:23:51.836Z,8.57
2023-03-26T05:26:19.297Z,7.97
2023-03-26T05:28:45.835Z,8.52
2023-03-26T05:31:12.499Z,8.10
2023-03-26T05:33:39.060Z,8.30
2023-03-26T05:36:15.251Z,8.80
2023-03-26T05:38:47.241Z,8.35
2023-03-26T05:41:13.911Z,8.20
2023-03-26T05:43:40.396Z,7.17
2023-03-26T05:46:07.282Z,9.60
2023-03-26T05:48:33.836Z,7.60
2023-03-26T05:51:00.307Z,7.15
2023-03-26T05:53:27.537Z,7.38
2023-03-26T05:55:59.576Z,8.07
2023-03-26T05:58:28.099Z,8.85
2023-03-26T06:01:09.220Z,7.40
2023-03-26T06:03:38.373Z,7.72
2023-03-26T06:06:17.577Z,8.73
2023-03-26T06:09:01.661Z,7.83
2023-03-26T06:11:30.323Z,8.27
2023-03-26T06:13:56.774Z,9.32
2023-03-26T06:16:26.895Z,7.88
2023-03-26T06:18:56.648Z,8.82
2023-03-26T06:21:28.181Z,8.30
2023-03-26T06:23:55.628Z,7.03
2023-03-26T06:26:22.510Z,7.93
2023-03-26T06:28:49.326Z,7.18
2023-03-26T06:31:17.254Z,7.45
2023-03-26T06:33:43.822Z,8.10
2023-03-26T06:36:10.597Z,7.88
2023-03-26T06:38:37.086Z,9.32
2023-03-26T06:41:05.444Z,9.32
2023-03-26T06:43:36.176Z,8.68
2023-03-26T06:46:03.743Z,6.30
2023-03-26T06:48:30.622Z,7.63
2023-03-26T06:50:57.260Z,7.68
2023-03-26T06:53:23.728Z,6.68
2023-03-26T06:55:50.321Z,7.35
2023-03-26T06:58:17.005Z,7.73
2023-03-26T07:00:43.517Z,7.60
2023-03-26T07:03:11.325Z,7.18
2023-03-26T07:05:40.404Z,7.90
2023-03-26T07:08:06.945Z,7.50
2023-03-26T07:10:33.757Z,7.37
2023-03-26T07:13:00.332Z,7.43
2023-03-26T07:15:28.587Z,10.02
2023-03-26T07:17:55.515Z,6.18
2023-03-26T07:20:22.194Z,8.13
2023-03-26T07:22:49.650Z,7.83
2023-03-26T07:25:18.196Z,7.80
2023-03-26T07:28:26.757Z,7.22
2023-03-26T07:30:59.248Z,8.00
2023-03-26T07:33:37.695Z,6.90
2023-03-26T07:36:34.102Z,6.90
2023-03-26T07:39:21.369Z,7.32
2023-03-26T07:42:13.595Z,7.93
2023-03-26T07:44:46.165Z,7.35
2023-03-26T07:47:29.056Z,7.40
2023-03-26T07:49:57.896Z,6.17
2023-03-26T07:52:25.824Z,7.47
2023-03-26T07:54:52.835Z,7.72
2023-03-26T07:57:37.532Z,7.65
2023-03-26T08:00:30.159Z,7.65
2023-03-26T08:03:22.112Z,6.37
2023-03-26T08:06:05.410Z,7.13
2023-03-26T08:08:42.219Z,7.47
2023-03-26T08:11:11.537Z,7.88
2023-03-26T08:13:50.360Z,6.57
2023-03-26T08:16:23.690Z,6.37
2023-03-26T08:19:16.716Z,7.35
2023-03-26T08:21:51.544Z,7.72
2023-03-26T08:24:26.295Z,7.07
2023-03-26T08:27:21.422Z,8.13
2023-03-26T08:30:03.874Z,7.97
2023-03-26T08:32:31.133Z,7.53
2023-03-26T08:35:00.030Z,7.97
2023-03-26T08:37:27.362Z,9.05
2023-03-26T08:39:54.117Z,7.38
2023-03-26T08:42:51.171Z,7.60
2023-03-26T08:45:43.005Z,7.50
2023-03-26T08:48:31.093Z,7.25
2023-03-26T08:51:32.392Z,7.70
2023-03-26T08:54:04.963Z,7.75
2023-03-26T08:57:13.016Z,7.87
2023-03-26T09:00:05.869Z,7.90
2023-03-26T09:03:06.777Z,8.98
2023-03-26T09:05:46.569Z,7.85
2023-03-26T09:08:18.916Z,8.45
2023-03-26T09:10:58.185Z,6.87
2023-03-26T09:14:06.098Z,7.85
2023-03-26T09:17:03.858Z,7.45
2023-03-26T09:19:39.329Z,7.35
2023-03-26T09:22:43.389Z,7.30
2023-03-26T09:25:13.471Z,8.50
2023-03-26T09:28:01.790Z,7.35
2023-03-26T09:30:38.737Z,7.95
2023-03-26T09:33:23.902Z,6.68
2023-03-26T09:36:06.238Z,7.65
2023-03-26T09:39:04.994Z,8.30
2023-03-26T09:41:52.560Z,7.88
2023-03-26T09:44:43.232Z,6.90
2023-03-26T09:47:22.270Z,6.28
2023-03-26T09:49:56.210Z,6.32
2023-03-26T09:52:47.316Z,7.57
2023-03-26T09:55:58.581Z,9.25
2023-03-26T09:58:49.799Z,8.13
2023-03-26T10:01:33.646Z,6.45
2023-03-26T10:04:40.205Z,7.20
2023-03-26T10:07:22.012Z,7.57
2023-03-26T10:10:04.124Z,6.65
2023-03-26T10:13:04.874Z,7.38
2023-03-26T10:16:15.449Z,7.10
2023-03-26T10:19:05.331Z,8.15
2023-03-26T10:21:46.555Z,8.93
2023-03-26T10:24:40.564Z,9.00
2023-03-26T10:27:14.268Z,8.40
2023-03-26T10:29:51.053Z,8.15
2023-03-26T10:32:30.661Z,7.82
2023-03-26T10:35:09.291Z,6.60
2023-03-26T10:37:47.846Z,6.45
2023-03-26T10:40:23.668Z,6.13
2023-03-26T10:43:08.892Z,6.22
2023-03-26T10:46:04.352Z,5.90
2023-03-26T10:48:35.716Z,5.57
2023-03-26T10:51:30.186Z,6.43
2023-03-26T10:54:12.908Z,6.28
2023-03-26T10:56:47.845Z,6.40
2023-03-26T10:59:16.438Z,7.70
2023-03-26T11:01:58.184Z,9.47
2023-03-26T11:04:48.861Z,7.65
2023-03-26T11:07:34.829Z,10.38
2023-03-26T11:10:13.679Z,8.82
2023-03-26T11:12:47.262Z,10.40
2023-03-26T11:15:18.120Z,9.97
2023-03-26T11:18:10.725Z,11.50
2023-03-26T11:20:40.278Z,11.00
2023-03-26T11:23:27.227Z,11.85
2023-03-26T11:26:22.866Z,12.60
2023-03-26T11:29:31.712Z,11.03
2023-03-26T11:31:59.470Z,11.60
2023-03-26T11:34:33.875Z,12.88
2023-03-26T11:37:03.201Z,12.40
2023-03-26T11:39:40.559Z,11.18
2023-03-26T11:42:14.295Z,10.63
2023-03-26T11:44:48.851Z,9.55
2023-03-26T11:47:21.378Z,10.35
2023-03-26T11:49:51.177Z,9.55
2023-03-26T11:52:17.631Z,9.60
2023-03-26T11:54:48.198Z,8.43
2023-03-26T11:57:21.738Z,9.18
2023-03-26T11:59:58.088Z,9.27
2023-03-26T12:02:32.498Z,9.82
2023-03-26T12:05:29.431Z,13.88
2023-03-26T12:08:01.081Z,13.97
2023-03-26T12:10:33.394Z,10.27
2023-03-26T12:13:03.128Z,9.38
2023-03-26T12:15:32.105Z,8.52
2023-03-26T12:18:17.915Z,9.23
2023-03-26T12:20:45.013Z,9.07
2023-03-26T12:23:52.460Z,8.85
2023-03-26T12:26:30.267Z,9.23
2023-03-26T12:28:56.705Z,8.25
2023-03-26T12:31:26.436Z,8.43
2023-03-26T12:34:31.635Z,8.97
2023-03-26T12:37:01.820Z,8.35
2023-03-26T12:40:10.203Z,9.55
2023-03-26T12:44:46.871Z,9.02
2023-03-26T12:45:22.806Z,8.52
2023-03-26T12:48:01.246Z,8.60
2023-03-26T12:51:06.525Z,8.73
2023-03-26T12:53:46.250Z,8.88
2023-03-26T12:56:38.553Z,9.35
2023-03-26T12:59:19.615Z,15.45
2023-03-26T13:01:55.130Z,9.30
2023-03-26T13:05:06.012Z,8.02
2023-03-26T13:07:58.427Z,9.55
2023-03-26T13:10:27.954Z,7.78
2023-03-26T13:13:37.588Z,7.85
2023-03-26T13:16:13.839Z,6.90
2023-03-26T13:19:05.092Z,7.40
2023-03-26T13:21:41.602Z,7.53
2023-03-26T13:24:30.168Z,7.10
2023-03-26T13:27:06.179Z,7.30
2023-03-26T13:30:00.652Z,8.07
2023-03-26T13:32:52.268Z,7.30
2023-03-26T13:35:31.407Z,6.75
2023-03-26T13:38:16.591Z,5.97
2023-03-26T13:40:57.880Z,5.72
2023-03-26T13:43:37.176Z,5.80
2023-03-26T13:46:15.430Z,5.70
2023-03-26T13:48:54.203Z,5.97
2023-03-26T13:52:02.600Z,6.53
2023-03-26T13:54:51.415Z,6.03
2023-03-26T13:57:35.611Z,5.30
2023-03-26T14:00:12.740Z,5.00
2023-03-26T14:02:42.508Z,7.10
2023-03-26T14:05:25.882Z,5.15
2023-03-26T14:08:17.827Z,5.32
2023-03-26T14:10:51.249Z,5.37
2023-03-26T14:13:35.855Z,5.55
2023-03-26T14:16:17.329Z,5.43
2023-03-26T14:19:21.387Z,5.43
2023-03-26T14:21:53.916Z,4.82
2023-03-26T14:24:51.428Z,4.13
2023-03-26T14:27:44.870Z,4.82
2023-03-26T14:30:41.533Z,5.20
2023-03-26T14:33:27.510Z,4.95
2023-03-26T14:36:11.302Z,5.40
2023-03-26T14:39:01.266Z,4.83
2023-03-26T14:41:44.928Z,5.07
2023-03-26T14:44:48.240Z,4.95
2023-03-26T14:47:19.233Z,5.32
2023-03-26T14:50:23.032Z,4.88
2023-03-26T14:52:51.613Z,4.93
2023-03-26T14:55:18.276Z,4.78
2023-03-26T14:58:22.071Z,5.20
2023-03-26T15:01:06.905Z,4.93
2023-03-26T15:04:06.890Z,4.80
2023-03-26T15:07:11.044Z,4.70
2023-03-26T15:10:02.631Z,4.88
2023-03-26T15:12:38.354Z,5.72
2023-03-26T15:15:26.327Z,5.57
2023-03-26T15:18:31.084Z,5.00
2023-03-26T15:21:19.284Z,5.30
2023-03-26T15:24:04.852Z,5.30
2023-03-26T15:27:01.113Z,5.20
2023-03-26T15:29:55.775Z,5.25
2023-03-26T15:32:52.668Z,5.22
2023-03-26T15:35:29.893Z,5.10
2023-03-26T15:38:33.676Z,5.20
2023-03-26T15:41:37.754Z,4.53
2023-03-26T15:44:25.585Z,4.75
2023-03-26T15:47:01.714Z,5.05
2023-03-26T15:49:42.614Z,4.77
2023-03-26T15:52:31.278Z,4.93
2023-03-26T15:55:09.487Z,5.35
2023-03-26T15:57:56.999Z,5.25
2023-03-26T16:00:26.531Z,4.93
2023-03-26T16:03:34.234Z,5.40
2023-03-26T16:06:34.850Z,5.18
2023-03-26T16:09:27.024Z,5.90
2023-03-26T16:12:23.365Z,5.95
2023-03-26T16:15:23.872Z,4.57
2023-03-26T16:18:10.219Z,5.57
2023-03-26T16:20:52.905Z,7.57
2023-03-26T16:23:27.337Z,6.20
2023-03-26T16:26:06.011Z,5.07
2023-03-26T16:28:35.083Z,6.40
2023-03-26T16:31:36.483Z,5.27
2023-03-26T16:34:05.232Z,8.23
2023-03-26T16:36:34.603Z,6.97
2023-03-26T16:39:04.371Z,6.57
2023-03-26T16:41:32.866Z,6.63
2023-03-26T16:44:17.377Z,5.83
2023-03-26T16:46:54.461Z,4.65
2023-03-26T16:49:41.503Z,5.28
2023-03-26T16:52:20.987Z,6.22
2023-03-26T16:54:47.622Z,6.13
2023-03-26T16:57:32.222Z,6.50
2023-03-26T17:00:23.417Z,5.53
2023-03-26T17:02:59.817Z,6.25
2023-03-26T17:05:59.129Z,4.90
2023-03-26T17:09:01.342Z,5.47
2023-03-26T17:11:27.751Z,5.80
2023-03-26T17:14:28.280Z,5.38
2023-03-26T17:17:21.347Z,7.25
2023-03-26T17:20:00.726Z,6.15
2023-03-26T17:22:41.215Z,6.07
2023-03-26T17:25:28.551Z,5.50
2023-03-26T17:28:39.664Z,5.18
2023-03-26T17:31:36.412Z,5.90
2023-03-26T17:34:49.141Z,5.32
2023-03-26T17:37:22.046Z,6.90
2023-03-26T17:39:51.506Z,5.40
2023-03-26T17:42:26.250Z,7.03
2023-03-26T17:44:55.985Z,5.88
2023-03-26T17:47:38.359Z,5.57
2023-03-26T17:50:16.450Z,5.72
2023-03-26T17:52:49.630Z,6.83
2023-03-26T17:55:20.914Z,6.82
2023-03-26T17:57:51.549Z,6.70
2023-03-26T18:00:23.522Z,6.28
2023-03-26T18:02:55.293Z,6.15
2023-03-26T18:05:24.945Z,4.77
2023-03-26T18:08:02.037Z,5.22
2023-03-26T18:10:38.870Z,6.53
2023-03-26T18:13:05.328Z,4.75
2023-03-26T18:15:57.765Z,7.15
2023-03-26T18:18:34.456Z,5.30
2023-03-26T18:21:04.516Z,5.78
2023-03-26T18:23:48.828Z,8.13
2023-03-26T18:26:19.651Z,9.55
2023-03-26T18:28:53.174Z,6.93
2023-03-26T18:31:26.291Z,6.50
2023-03-26T18:34:03.134Z,6.57
2023-03-26T18:36:30.999Z,7.90
2023-03-26T18:39:04.208Z,6.32
2023-03-26T18:41:41.716Z,6.18
2023-03-26T18:44:15.794Z,5.60
2023-03-26T18:46:43.297Z,6.65
2023-03-26T18:49:15.834Z,6.53
2023-03-26T18:51:56.119Z,5.55
2023-03-26T18:54:23.873Z,6.25
2023-03-26T18:56:52.158Z,5.50
2023-03-26T18:59:28.917Z,6.68
2023-03-26T19:01:59.803Z,7.07
2023-03-26T19:04:28.360Z,5.85
2023-03-26T19:06:56.893Z,6.22
2023-03-26T19:09:31.510Z,10.57
2023-03-26T19:12:07.097Z,11.18
2023-03-26T19:14:37.144Z,7.75
2023-03-26T19:17:07.053Z,7.05
2023-03-26T19:19:37.372Z,6.70
2023-03-26T19:22:11.346Z,5.50
2023-03-26T19:24:40.405Z,6.40
2023-03-26T19:27:07.738Z,6.70
2023-03-26T19:29:36.213Z,7.30
2023-03-26T19:32:18.258Z,7.50
2023-03-26T19:34:47.008Z,6.17
2023-03-26T19:37:49.369Z,8.18
2023-03-26T19:40:30.249Z,5.97
2023-03-26T19:42:59.707Z,6.35
2023-03-26T19:45:27.019Z,5.93
2023-03-26T19:48:07.448Z,6.13
2023-03-26T19:50:43.286Z,5.78
2023-03-26T19:53:24.237Z,8.15
2023-03-26T19:55:57.301Z,5.90
2023-03-26T19:58:25.950Z,7.00
2023-03-26T20:00:53.005Z,5.87
2023-03-26T20:03:27.276Z,6.45
2023-03-26T20:05:53.902Z,7.05
2023-03-26T20:08:26.655Z,6.38
2023-03-26T20:10:54.878Z,7.05
2023-03-26T20:13:21.632Z,8.17
2023-03-26T20:16:05.637Z,7.68
2023-03-26T20:18:34.118Z,8.38
2023-03-26T20:21:00.714Z,6.57
2023-03-26T20:23:28.778Z,6.68
2023-03-26T20:25:55.614Z,6.73
2023-03-26T20:28:22.336Z,6.95
2023-03-26T20:30:50.778Z,6.75
2023-03-26T20:33:26.578Z,6.15
2023-03-26T20:35:55.296Z,6.60
2023-03-26T20:38:36.650Z,5.77
2023-03-26T20:41:09.610Z,7.00
2023-03-26T20:43:36.644Z,6.75
2023-03-26T20:46:04.023Z,5.95
2023-03-26T20:48:30.523Z,6.75
2023-03-26T20:50:57.087Z,7.00
2023-03-26T20:53:24.195Z,5.75
2023-03-26T20:55:51.634Z,6.80
2023-03-26T20:58:31.474Z,5.47
2023-03-26T21:01:01.577Z,6.78
2023-03-26T21:03:28.263Z,5.47
2023-03-26T21:06:00.108Z,5.40
2023-03-26T21:08:30.204Z,6.20
2023-03-26T21:10:58.692Z,5.72
2023-03-26T21:13:28.164Z,7.72
2023-03-26T21:15:54.857Z,5.80
2023-03-26T21:18:21.845Z,6.03
2023-03-26T21:21:07.592Z,7.20
2023-03-26T21:23:49.070Z,6.47
2023-03-26T21:26:25.616Z,6.80
2023-03-26T21:28:52.293Z,4.97
2023-03-26T21:31:21.324Z,5.43
2023-03-26T21:33:49.357Z,6.53
2023-03-26T21:36:18.078Z,6.63
2023-03-26T21:38:45.592Z,7.65
2023-03-26T21:41:24.523Z,6.63
2023-03-26T21:43:51.545Z,6.95
2023-03-26T21:46:18.541Z,6.78
2023-03-26T21:48:45.363Z,6.35
2023-03-26T21:51:14.730Z,5.65
2023-03-26T21:53:42.949Z,5.83
2023-03-26T21:56:35.768Z,6.43
2023-03-26T21:59:40.992Z,6.82
2023-03-26T22:02:23.085Z,6.20
2023-03-26T22:04:51.698Z,6.43
2023-03-26T22:07:30.609Z,5.90
2023-03-26T22:09:57.303Z,6.20
2023-03-26T22:12:25.610Z,6.63
2023-03-26T22:14:52.573Z,6.57
2023-03-26T22:17:19.514Z,6.65
2023-03-26T22:19:46.012Z,6.20
2023-03-26T22:22:12.541Z,6.20
2023-03-26T22:24:39.108Z,7.10
2023-03-26T22:27:06.203Z,6.75
2023-03-26T22:29:32.830Z,7.85
2023-03-26T22:31:59.311Z,5.87
2023-03-26T22:34:25.944Z,6.63
2023-03-26T22:36:53.173Z,8.02
2023-03-26T22:39:19.688Z,6.00
2023-03-26T22:41:46.117Z,6.07
2023-03-26T22:44:19.745Z,5.73
2023-03-26T22:46:49.142Z,6.55
2023-03-26T22:49:16.511Z,6.78
2023-03-26T22:51:43.082Z,7.40
2023-03-26T22:54:09.617Z,7.40
2023-03-26T22:56:37.045Z,6.23
2023-03-26T22:59:03.790Z,6.60
2023-03-26T23:01:30.659Z,7.90
2023-03-26T23:03:57.918Z,5.53
2023-03-26T23:06:25.080Z,6.45
2023-03-26T23:08:51.679Z,7.50
2023-03-26T23:11:20.378Z,6.65
2023-03-26T23:13:47.905Z,6.97
2023-03-26T23:16:16.668Z,6.82
2023-03-26T23:18:43.288Z,6.82
2023-03-26T23:21:21.522Z,5.67
2023-03-26T23:23:49.717Z,5.40
2023-03-26T23:26:16.647Z,7.13
2023-03-26T23:28:43.327Z,6.70
2023-03-26T23:31:13.436Z,6.90
2023-03-26T23:33:46.185Z,7.23
2023-03-26T23:36:17.553Z,6.50
2023-03-26T23:38:48.160Z,6.60
2023-03-26T23:41:16.959Z,6.40
2023-03-26T23:43:53.936Z,6.57
2023-03-26T23:46:30.896Z,6.33
2023-03-26T23:49:00.019Z,5.63
2023-03-26T23:51:26.722Z,6.30
2023-03-26T23:53:54.037Z,5.43
2023-03-26T23:56:20.938Z,6.53
2023-03-26T23:58:48.921Z,5.87
